Time;durP1;ratioP1;P1;durP2;ratioP2;P2;SDS_P1;SDS_P2;PMS_P1;PMS_P2;Temp;Humidity;BMP_temperature;BMP_pressure;BME280_temperature;BME280_humidity;BME280_pressure;Samples;Min_cycle;Max_cycle;Signal;HPM_P1;HPM_P2
2023/12/23 00:01:30;;;;;;;3.00;2.10;;;;;;;5.20;100.00;63469.81;5071712;28;20206;-55
2023/12/23 00:03:58;;;;;;;5.30;2.63;;;;;;;5.23;100.00;63476.13;5072097;28;20210;-55
2023/12/23 00:06:24;;;;;;;4.30;2.20;;;;;;;5.23;100.00;63476.13;5071427;28;20661;-54
2023/12/23 00:08:49;;;;;;;3.77;2.50;;;;;;;5.18;100.00;63467.63;5071792;28;20188;-54
2023/12/23 00:11:22;;;;;;;3.73;2.60;;;;;;;4.88;100.00;63436.09;5071743;28;20189;-53
2023/12/23 00:13:47;;;;;;;5.17;2.60;;;;;;;4.79;100.00;63425.72;5071641;28;20626;-53
2023/12/23 00:16:13;;;;;;;3.57;2.40;;;;;;;4.61;100.00;63406.16;5053492;28;20729;-55
2023/12/23 00:18:38;;;;;;;4.47;2.33;;;;;;;4.84;100.00;63434.22;5071533;28;20228;-55
2023/12/23 00:21:04;;;;;;;3.60;2.07;;;;;;;4.83;100.00;63430.09;5071368;28;20188;-54
2023/12/23 00:23:30;;;;;;;4.57;2.67;;;;;;;4.79;100.00;63426.28;5053165;28;20285;-55
2023/12/23 00:25:56;;;;;;;4.37;2.40;;;;;;;4.63;100.00;63408.34;5071294;28;20607;-53
2023/12/23 00:28:22;;;;;;;3.60;2.23;;;;;;;4.55;100.00;63402.13;5071496;28;20235;-54
2023/12/23 00:30:47;;;;;;;3.93;2.20;;;;;;;4.45;100.00;63389.31;5071192;28;20216;-54
2023/12/23 00:33:13;;;;;;;4.10;2.93;;;;;;;4.36;100.00;63382.03;5071464;28;20231;-54
2023/12/23 00:35:38;;;;;;;3.10;2.03;;;;;;;4.15;100.00;63356.69;5071228;28;20225;-53
2023/12/23 00:38:04;;;;;;;4.13;2.57;;;;;;;4.25;100.00;63370.59;5069585;28;20204;-54
2023/12/23 00:40:30;;;;;;;4.57;3.00;;;;;;;4.45;100.00;63389.31;5053158;28;20198;-57
2023/12/23 00:43:03;;;;;;;3.97;2.50;;;;;;;4.05;100.00;63345.81;5070579;28;20258;-53
2023/12/23 00:45:28;;;;;;;4.73;2.43;;;;;;;4.24;100.00;63369.50;5070926;28;20213;-54
2023/12/23 00:47:54;;;;;;;4.40;2.67;;;;;;;4.43;100.00;63389.63;5070980;28;20301;-52
2023/12/23 00:50:19;;;;;;;4.27;2.30;;;;;;;4.57;100.00;63404.28;5053136;28;20196;-60
2023/12/23 00:52:45;;;;;;;4.30;2.63;;;;;;;4.07;100.00;63350.47;5070396;28;20658;-53
2023/12/23 00:55:10;;;;;;;5.53;2.73;;;;;;;4.23;100.00;63365.94;5070779;28;20617;-54
2023/12/23 00:57:36;;;;;;;7.73;3.60;;;;;;;4.45;100.00;63386.81;5070998;28;20302;-54
2023/12/23 01:00:02;;;;;;;7.50;4.20;;;;;;;4.43;100.00;63387.13;5070912;28;20204;-54
2023/12/23 01:02:27;;;;;;;6.67;3.27;;;;;;;4.49;100.00;63393.66;5070942;28;20226;-53
2023/12/23 01:04:54;;;;;;;4.23;2.83;;;;;;;4.36;100.00;63381.47;5070782;28;20653;-54
2023/12/23 01:07:20;;;;;;;2.83;2.33;;;;;;;4.57;100.00;63402.34;5070529;28;20889;-54
2023/12/23 01:09:45;;;;;;;6.40;3.13;;;;;;;4.87;100.00;63437.47;5036330;28;20227;-54
2023/12/23 01:12:11;;;;;;;3.80;2.77;;;;;;;4.69;100.00;63412.91;5052786;28;20664;-53
2023/12/23 01:14:36;;;;;;;7.97;3.10;;;;;;;4.38;100.00;63383.66;5052933;28;20189;-54
2023/12/23 01:17:03;;;;;;;6.23;2.90;;;;;;;4.32;100.00;63377.66;5070790;28;20245;-54
2023/12/23 01:19:28;;;;;;;6.20;3.63;;;;;;;4.37;100.00;63383.09;5070696;28;20294;-55
2023/12/23 01:21:54;;;;;;;7.00;3.43;;;;;;;4.38;100.00;63381.69;5070716;28;20292;-53
2023/12/23 01:24:19;;;;;;;6.87;3.70;;;;;;;4.46;100.00;63390.41;5070413;28;20212;-53
2023/12/23 01:26:45;;;;;;;5.87;3.50;;;;;;;4.45;100.00;63389.31;5070405;28;20216;-55
2023/12/23 01:29:10;;;;;;;5.83;3.07;;;;;;;4.20;100.00;63362.66;5052478;28;20204;-57
2023/12/23 01:31:36;;;;;;;5.53;3.37;;;;;;;4.13;100.00;63355.06;5070357;28;20196;-54
2023/12/23 01:34:01;;;;;;;5.60;2.97;;;;;;;3.44;100.00;63282.53;5070500;28;20189;-52
2023/12/23 01:36:27;;;;;;;5.33;3.40;;;;;;;3.29;100.00;63266.78;5070397;28;20181;-53
2023/12/23 01:38:53;;;;;;;4.97;3.30;;;;;;;3.62;100.00;63299.06;5052364;28;20339;-54
2023/12/23 01:41:18;;;;;;;4.50;2.97;;;;;;;3.47;100.00;63285.81;5070379;28;20263;-53
2023/12/23 01:43:44;;;;;;;6.40;3.00;;;;;;;3.77;100.00;63318.41;5070307;28;20692;-54
2023/12/23 01:46:10;;;;;;;5.93;2.37;;;;;;;3.89;100.00;63328.41;5070222;28;20189;-55
2023/12/23 01:48:39;;;;;;;5.87;3.20;;;;;;;3.97;100.00;63342.66;5070619;28;20216;-54
2023/12/23 01:51:05;;;;;;;8.03;3.43;;;;;;;4.17;100.00;63361.34;5073673;28;20260;-55
2023/12/23 01:53:33;;;;;;;4.27;2.30;;;;;;;3.78;100.00;63319.50;5055885;28;20232;-56
2023/12/23 01:55:59;;;;;;;5.07;2.60;;;;;;;3.82;100.00;63321.34;5073982;28;20261;-54
2023/12/23 01:58:25;;;;;;;4.83;2.97;;;;;;;3.86;100.00;63328.19;5074070;28;20216;-52
2023/12/23 02:00:51;;;;;;;5.43;2.93;;;;;;;3.95;100.00;63334.94;5055743;28;20634;-54
2023/12/23 02:03:17;;;;;;;9.87;2.93;;;;;;;3.92;100.00;63329.19;5073751;28;20220;-53
2023/12/23 02:05:45;;;;;;;5.13;2.70;;;;;;;3.86;100.00;63327.63;5073489;28;20292;-54
2023/12/23 02:08:11;;;;;;;4.13;2.50;;;;;;;3.85;100.00;63324.63;5073472;28;20213;-53
2023/12/23 02:10:37;;;;;;;4.50;2.60;;;;;;;3.89;100.00;63331.47;5073374;28;20214;-53
2023/12/23 02:13:17;;;;;;;3.53;2.60;;;;;;;3.90;100.00;63332.53;5055559;28;20243;-53
2023/12/23 02:15:47;;;;;;;3.13;2.27;;;;;;;3.98;100.00;63341.22;5073432;28;20194;-54
2023/12/23 02:18:12;;;;;;;2.10;1.80;;;;;;;3.74;100.00;63312.66;5073492;28;20624;-53
2023/12/23 02:20:38;;;;;;;4.20;2.53;;;;;;;3.96;100.00;63333.53;5073251;28;20248;-53
2023/12/23 02:23:04;;;;;;;7.33;2.70;;;;;;;4.02;100.00;63342.56;5073697;28;20249;-53
2023/12/23 02:25:30;;;;;;;6.53;3.23;;;;;;;4.03;100.00;63346.13;5073155;28;20212;-54
2023/12/23 02:28:03;;;;;;;3.37;2.47;;;;;;;3.95;100.00;63335.50;5073184;28;20223;-54
2023/12/23 02:30:30;;;;;;;5.23;2.50;;;;;;;3.71;100.00;63311.34;5055384;28;20183;-54
2023/12/23 02:32:56;;;;;;;5.00;2.37;;;;;;;3.82;100.00;63320.78;5073321;28;20229;-54
2023/12/23 02:35:27;;;;;;;3.40;2.27;;;;;;;3.70;100.00;63310.78;5073068;28;20183;-52
2023/12/23 02:37:54;;;;;;;3.80;2.00;;;;;;;3.61;100.00;63300.47;5054728;28;20651;-53
2023/12/23 02:40:20;;;;;;;3.30;1.87;;;;;;;3.65;100.00;63307.31;5072311;28;20197;-54
2023/12/23 02:42:46;;;;;;;2.83;1.80;;;;;;;3.61;100.00;63298.00;5055055;28;20224;-53
2023/12/23 02:45:11;;;;;;;2.80;1.57;;;;;;;3.50;100.00;63286.03;5055121;28;20238;-54
2023/12/23 02:47:37;;;;;;;4.10;1.90;;;;;;;3.62;100.00;63299.06;5038217;28;20220;-54
2023/12/23 02:50:02;;;;;;;2.77;1.67;;;;;;;3.58;100.00;63294.72;5072884;28;20183;-55
2023/12/23 02:52:29;;;;;;;2.43;1.80;;;;;;;3.74;100.00;63310.16;5072865;28;20295;-53
2023/12/23 02:54:54;;;;;;;3.53;1.90;;;;;;;3.69;100.00;63309.16;5053668;28;20274;-54
2023/12/23 02:57:20;;;;;;;2.33;1.73;;;;;;;3.62;100.00;63299.63;5072868;28;20304;-52
2023/12/23 02:59:45;;;;;;;3.20;1.77;;;;;;;3.51;100.00;63287.13;5072472;28;20243;-54
2023/12/23 03:02:11;;;;;;;3.53;1.90;;;;;;;3.54;100.00;63292.88;5071888;28;20218;-56
2023/12/23 03:04:36;;;;;;;3.50;1.70;;;;;;;3.51;100.00;63287.13;5071948;28;20575;-54
2023/12/23 03:07:02;;;;;;;3.70;1.70;;;;;;;3.73;100.00;63311.03;5053540;28;20209;-57
2023/12/23 03:09:27;;;;;;;3.20;1.80;;;;;;;3.59;100.00;63296.38;5053258;28;20187;-54
2023/12/23 03:11:53;;;;;;;5.40;2.10;;;;;;;3.71;100.00;63311.34;5071354;28;20625;-54
2023/12/23 03:14:18;;;;;;;1.57;1.40;;;;;;;3.75;100.00;63313.75;5071258;28;20632;-54
2023/12/23 03:16:44;;;;;;;3.10;1.80;;;;;;;3.83;100.00;63319.41;5072408;28;20228;-54
2023/12/23 03:19:09;;;;;;;2.13;1.93;;;;;;;3.83;100.00;63324.94;5071527;28;20188;-54
2023/12/23 03:21:41;;;;;;;2.17;1.70;;;;;;;3.82;100.00;63325.78;5071855;28;20191;-54
2023/12/23 03:24:07;;;;;;;3.37;2.10;;;;;;;3.76;100.00;63317.31;5072312;28;20197;-53
2023/12/23 03:26:32;;;;;;;3.40;1.87;;;;;;;3.73;100.00;63311.03;5072412;28;20215;-53
2023/12/23 03:28:58;;;;;;;1.30;1.20;;;;;;;3.94;100.00;63336.34;5072596;28;20658;-53
2023/12/23 03:31:23;;;;;;;1.33;1.20;;;;;;;3.87;100.00;63326.25;5072263;28;20219;-53
2023/12/23 03:33:49;;;;;;;1.50;1.33;;;;;;;3.87;100.00;63328.72;5072404;28;20180;-52
2023/12/23 03:36:16;;;;;;;1.73;1.00;;;;;;;3.88;100.00;63327.88;5072306;28;20736;-53
2023/12/23 03:38:42;;;;;;;2.57;1.40;;;;;;;3.69;100.00;63306.69;5072249;28;20217;-54
2023/12/23 03:41:10;;;;;;;2.23;1.40;;;;;;;3.61;100.00;63300.47;5054271;28;20642;-54
2023/12/23 03:43:35;;;;;;;3.47;1.63;;;;;;;3.68;100.00;63303.63;5072118;28;20624;-54
2023/12/23 03:46:01;;;;;;;1.57;1.43;;;;;;;3.86;100.00;63322.66;5071835;28;20212;-54
2023/12/23 03:48:27;;;;;;;6.13;1.63;;;;;;;3.75;100.00;63316.25;5071427;28;20254;-54
2023/12/23 03:50:52;;;;;;;5.60;1.60;;;;;;;3.66;100.00;63306.44;5071716;28;20191;-55
2023/12/23 03:53:18;;;;;;;2.80;1.60;;;;;;;3.71;100.00;63308.84;5071978;28;20229;-53
2023/12/23 03:55:43;;;;;;;2.27;1.50;;;;;;;3.74;100.00;63314.59;5071629;28;20297;-55
2023/12/23 03:58:09;;;;;;;2.60;1.93;;;;;;;3.65;100.00;63302.88;5071922;28;20219;-54
2023/12/23 04:00:34;;;;;;;3.50;1.20;;;;;;;3.63;100.00;63303.19;5071427;28;20206;-55
2023/12/23 04:03:00;;;;;;;2.43;1.43;;;;;;;3.65;100.00;63304.81;5063219;22;20232;-54
2023/12/23 04:05:25;;;;;;;1.70;1.30;;;;;;;3.67;100.00;63305.06;5013906;28;20226;-54
2023/12/23 04:07:51;;;;;;;1.73;1.20;;;;;;;3.24;100.00;63261.38;5031823;28;20258;-53
2023/12/23 04:10:17;;;;;;;2.33;1.50;;;;;;;3.48;100.00;63286.88;5031675;28;20230;-54
2023/12/23 04:12:43;;;;;;;1.93;1.40;;;;;;;3.63;100.00;63305.69;5031634;28;20731;-54
2023/12/23 04:15:09;;;;;;;3.03;1.97;;;;;;;3.58;100.00;63289.75;5031543;28;20338;-56
2023/12/23 04:17:34;;;;;;;1.97;1.40;;;;;;;3.46;100.00;63284.16;5031802;28;20673;-53
2023/12/23 04:20:01;;;;;;;1.67;1.43;;;;;;;3.66;100.00;63303.41;5031487;28;20190;-53
2023/12/23 04:22:26;;;;;;;1.83;1.37;;;;;;;3.65;100.00;63305.38;5031765;28;20221;-54
2023/12/23 04:24:53;;;;;;;2.63;1.17;;;;;;;3.51;100.00;63284.63;5013853;28;20239;-54
2023/12/23 04:27:18;;;;;;;2.03;1.40;;;;;;;3.73;100.00;63311.56;5030074;28;20229;-55
2023/12/23 04:29:44;;;;;;;3.63;1.73;;;;;;;3.71;100.00;63309.41;5031561;28;20191;-55
2023/12/23 04:32:10;;;;;;;2.13;1.43;;;;;;;3.76;100.00;63317.31;5031456;28;20268;-52
2023/12/23 04:34:38;;;;;;;1.93;1.63;;;;;;;3.40;100.00;63273.22;5031398;28;20666;-53
2023/12/23 04:37:04;;;;;;;4.07;1.60;;;;;;;3.55;100.00;63293.97;5030982;28;20217;-53
2023/12/23 04:39:30;;;;;;;1.87;1.57;;;;;;;3.67;100.00;63307.00;5013517;28;20197;-53
2023/12/23 04:41:56;;;;;;;1.27;1.10;;;;;;;3.78;100.00;63318.94;5031287;28;20677;-53
2023/12/23 04:44:22;;;;;;;3.73;1.53;;;;;;;3.81;100.00;63322.75;5031097;28;20218;-54
2023/12/23 04:46:49;;;;;;;2.50;1.30;;;;;;;3.52;100.00;63291.25;5011771;28;20210;-54
2023/12/23 04:49:15;;;;;;;1.73;1.13;;;;;;;3.46;100.00;63284.72;5012019;28;20198;-61
2023/12/23 04:51:44;;;;;;;4.97;1.20;;;;;;;3.75;100.00;63315.69;5013209;28;20213;-61
2023/12/23 04:54:10;;;;;;;2.83;1.43;;;;;;;3.86;100.00;63327.63;5031064;28;20192;-55
2023/12/23 04:56:36;;;;;;;1.90;1.20;;;;;;;3.82;100.00;63323.28;5013191;28;20273;-53
2023/12/23 04:59:02;;;;;;;1.30;1.00;;;;;;;3.75;100.00;63316.25;5031182;28;20280;-54
2023/12/23 05:01:27;;;;;;;1.77;1.20;;;;;;;3.93;100.00;63335.25;5030620;28;20286;-58
2023/12/23 05:03:53;;;;;;;3.07;0.97;;;;;;;4.01;100.00;63341.47;5030823;28;20199;-54
2023/12/23 05:06:18;;;;;;;2.80;1.10;;;;;;;4.10;100.00;63354.28;5029746;28;20185;-55
2023/12/23 05:08:44;;;;;;;1.67;1.33;;;;;;;4.19;100.00;63366.00;5031264;28;20218;-55
2023/12/23 05:11:10;;;;;;;1.97;1.30;;;;;;;3.81;100.00;63319.72;5030900;28;20186;-54
2023/12/23 05:13:36;;;;;;;1.77;1.07;;;;;;;4.11;100.00;63354.81;5030855;28;20221;-54
2023/12/23 05:16:01;;;;;;;2.80;1.90;;;;;;;4.20;100.00;63364.63;5030237;28;20196;-53
2023/12/23 05:18:27;;;;;;;1.40;1.20;;;;;;;4.07;100.00;63348.53;5030466;28;20210;-54
2023/12/23 05:20:53;;;;;;;4.57;2.93;;;;;;;4.17;100.00;63361.91;5030965;28;20186;-56
2023/12/23 05:23:19;;;;;;;1.80;1.33;;;;;;;4.00;100.00;63340.38;5012899;28;20577;-53
2023/12/23 05:25:45;;;;;;;1.77;1.20;;;;;;;4.04;100.00;63349.72;5034073;28;20214;-54
2023/12/23 05:28:11;;;;;;;3.87;0.90;;;;;;;4.29;100.00;63374.41;5034579;28;20224;-54
2023/12/23 05:30:37;;;;;;;3.17;1.23;;;;;;;4.30;100.00;63369.97;5034173;28;20215;-54
2023/12/23 05:33:02;;;;;;;1.23;0.97;;;;;;;4.30;100.00;63375.50;5034218;28;20210;-55
2023/12/23 05:35:28;;;;;;;2.37;1.40;;;;;;;4.06;100.00;63346.91;5034308;28;20193;-52
2023/12/23 05:37:54;;;;;;;2.20;1.30;;;;;;;4.40;100.00;63386.38;5033807;28;20217;-54
2023/12/23 05:40:19;;;;;;;2.03;1.17;;;;;;;4.41;100.00;63384.94;5034070;28;20209;-53
2023/12/23 05:42:45;;;;;;;2.67;1.30;;;;;;;4.47;100.00;63393.97;5033861;28;20303;-55
2023/12/23 05:45:11;;;;;;;1.80;1.17;;;;;;;4.55;100.00;63399.63;5033888;28;20205;-54
2023/12/23 05:47:37;;;;;;;0.83;0.80;;;;;;;4.65;100.00;63411.06;5034114;28;20301;-53
2023/12/23 05:50:03;;;;;;;1.87;1.20;;;;;;;4.37;100.00;63380.59;5033801;28;20220;-54
2023/12/23 05:52:30;;;;;;;1.63;1.00;;;;;;;4.56;100.00;63401.28;5015896;28;20218;-54
2023/12/23 05:54:56;;;;;;;2.23;1.47;;;;;;;4.74;100.00;63423.34;5033546;28;20774;-54
2023/12/23 05:57:21;;;;;;;2.00;1.30;;;;;;;4.69;100.00;63415.41;5033469;28;20217;-55
2023/12/23 05:59:47;;;;;;;1.70;1.33;;;;;;;4.56;100.00;63403.78;5033747;28;20197;-52
2023/12/23 06:02:13;;;;;;;3.70;1.13;;;;;;;5.32;100.00;63480.94;5033606;28;20249;-53
2023/12/23 06:04:38;;;;;;;1.77;1.37;;;;;;;6.23;100.00;63584.50;5033648;28;20242;-55
2023/12/23 06:07:04;;;;;;;2.37;1.07;;;;;;;5.85;100.00;63540.63;5033483;28;20217;-57
2023/12/23 06:09:30;;;;;;;3.27;1.30;;;;;;;5.41;100.00;63490.19;5015916;28;20193;-55
2023/12/23 06:11:56;;;;;;;2.03;1.30;;;;;;;5.39;100.00;63493.00;5033756;28;20213;-54
2023/12/23 06:14:21;;;;;;;1.97;1.50;;;;;;;5.23;100.00;63476.13;5015824;28;20197;-54
2023/12/23 06:16:47;;;;;;;3.93;1.43;;;;;;;5.28;100.00;63478.53;5033329;28;20586;-54
2023/12/23 06:19:12;;;;;;;2.20;1.50;;;;;;;5.21;100.00;63471.47;5033640;28;20223;-53
2023/12/23 06:21:45;;;;;;;2.50;1.47;;;;;;;4.72;100.00;63421.19;5033544;28;20248;-54
2023/12/23 06:24:11;;;;;;;2.60;1.60;;;;;;;5.45;100.00;63497.59;5033370;28;20209;-54
2023/12/23 06:26:37;;;;;;;4.70;1.50;;;;;;;5.63;100.00;63519.13;5033198;28;20204;-53
2023/12/23 06:29:02;;;;;;;2.73;1.30;;;;;;;5.74;100.00;63529.16;5033349;28;20269;-55
2023/12/23 06:31:28;;;;;;;2.53;1.40;;;;;;;5.78;97.49;63535.47;5033133;28;20281;-55
2023/12/23 06:33:53;;;;;;;5.13;1.43;;;;;;;5.78;97.71;63538.50;5033151;28;20717;-54
2023/12/23 06:36:19;;;;;;;3.07;1.20;;;;;;;5.89;95.84;63542.47;5033200;28;20186;-57
2023/12/23 06:38:44;;;;;;;3.07;1.70;;;;;;;6.05;96.79;63562.41;5015375;28;20213;-53
2023/12/23 06:41:12;;;;;;;6.43;1.73;;;;;;;5.80;96.79;63535.13;5033283;28;20186;-54
2023/12/23 06:43:37;;;;;;;2.57;1.40;;;;;;;5.55;100.00;63510.44;5015056;28;20217;-54
2023/12/23 06:46:03;;;;;;;2.07;1.47;;;;;;;5.42;100.00;63494.31;5033133;28;20260;-53
2023/12/23 06:48:28;;;;;;;1.43;1.33;;;;;;;5.40;100.00;63491.59;5032960;28;20240;-56
2023/12/23 06:50:54;;;;;;;2.63;1.57;;;;;;;5.29;100.00;63479.63;5033057;28;20664;-55
2023/12/23 06:53:20;;;;;;;5.80;1.33;;;;;;;5.25;100.00;63473.31;5033245;28;20713;-55
2023/12/23 06:55:45;;;;;;;2.57;2.07;;;;;;;5.21;100.00;63470.91;5032911;28;20189;-55
2023/12/23 06:58:11;;;;;;;3.67;1.63;;;;;;;5.39;100.00;63490.50;5032707;28;20209;-55
2023/12/23 07:00:36;;;;;;;5.93;1.97;;;;;;;5.49;100.00;63506.94;5014933;28;20206;-54
2023/12/23 07:03:02;;;;;;;2.77;1.67;;;;;;;5.62;100.00;63516.09;5048160;28;20293;-53
2023/12/23 07:05:28;;;;;;;2.63;1.87;;;;;;;5.51;99.82;63506.06;5051048;28;20244;-56
2023/12/23 07:07:53;;;;;;;3.53;2.30;;;;;;;5.53;100.00;63505.75;5051493;28;20222;-56
2023/12/23 07:10:19;;;;;;;3.50;2.20;;;;;;;5.54;100.00;63506.81;5051308;28;20242;-56
2023/12/23 07:12:44;;;;;;;4.27;1.87;;;;;;;5.79;100.00;63537.09;5052280;28;20691;-55
2023/12/23 07:15:10;;;;;;;5.33;2.53;;;;;;;5.81;98.34;63538.75;5052548;28;20186;-55
2023/12/23 07:17:35;;;;;;;4.97;2.50;;;;;;;5.46;100.00;63498.13;5052366;28;20691;-57
2023/12/23 07:20:03;;;;;;;3.50;1.70;;;;;;;5.63;100.00;63519.13;5051334;28;20189;-56
2023/12/23 07:22:28;;;;;;;4.33;1.63;;;;;;;5.89;97.55;63547.47;5052509;28;20216;-54
2023/12/23 07:24:55;;;;;;;3.63;2.03;;;;;;;6.10;96.80;63567.84;5052103;28;20228;-55
2023/12/23 07:27:21;;;;;;;2.53;1.70;;;;;;;6.48;94.40;63609.28;5052312;28;20215;-54
2023/12/23 07:29:47;;;;;;;4.33;2.70;;;;;;;6.65;91.64;63630.28;5052413;28;20197;-54
2023/12/23 07:32:12;;;;;;;2.33;1.57;;;;;;;7.15;86.95;63683.72;5034315;28;20217;-54
2023/12/23 07:34:38;;;;;;;2.03;1.10;;;;;;;7.45;83.54;63711.44;5052306;28;20578;-55
2023/12/23 07:37:03;;;;;;;3.33;2.20;;;;;;;7.50;85.12;63719.41;5052360;28;20283;-54
2023/12/23 07:39:29;;;;;;;3.23;1.40;;;;;;;7.84;80.11;63756.50;5034210;28;20193;-54
2023/12/23 07:41:57;;;;;;;5.70;1.20;;;;;;;8.24;77.37;63800.16;5052248;28;20675;-54
2023/12/23 07:44:24;;;;;;;2.30;1.10;;;;;;;8.43;76.41;63820.94;5052008;28;20217;-54
2023/12/23 07:46:49;;;;;;;2.83;1.00;;;;;;;8.74;74.20;63851.19;5051352;28;20213;-53
2023/12/23 07:49:15;;;;;;;1.47;0.80;;;;;;;8.92;72.37;63873.94;5052138;28;20272;-54
2023/12/23 07:51:41;;;;;;;1.47;1.10;;;;;;;9.09;71.42;63891.97;5052293;28;20377;-55
2023/12/23 07:54:06;;;;;;;1.33;0.80;;;;;;;9.59;68.35;63944.09;5050727;28;20185;-55
2023/12/23 07:56:32;;;;;;;3.63;0.80;;;;;;;9.58;68.99;63942.44;5034136;28;20678;-56
2023/12/23 07:58:57;;;;;;;1.17;1.07;;;;;;;9.55;68.19;63942.25;5051981;28;20671;-56
2023/12/23 08:01:24;;;;;;;2.60;1.80;;;;;;;9.62;69.57;63947.38;5051622;28;20194;-55
2023/12/23 08:03:49;;;;;;;3.20;1.30;;;;;;;9.91;67.20;63981.06;5051908;28;20186;-56
2023/12/23 08:06:16;;;;;;;1.20;0.90;;;;;;;9.89;66.87;63978.88;5051979;28;20727;-56
2023/12/23 08:08:42;;;;;;;2.17;0.87;;;;;;;9.83;67.42;63969.81;5051401;28;20228;-55
2023/12/23 08:11:08;;;;;;;2.93;1.27;;;;;;;9.77;67.31;63963.25;5050572;28;20193;-55
2023/12/23 08:13:34;;;;;;;1.10;1.00;;;;;;;9.89;66.31;63979.44;5051646;28;20308;-55
2023/12/23 08:15:59;;;;;;;2.87;1.30;;;;;;;10.82;88.94;64080.69;5051719;28;20197;-56
2023/12/23 08:18:25;;;;;;;4.87;1.10;;;;;;;10.40;66.56;64034.72;5051753;28;20298;-54
2023/12/23 08:20:50;;;;;;;1.03;0.93;;;;;;;10.34;64.40;64027.59;5050955;28;20186;-55
2023/12/23 08:23:16;;;;;;;1.60;0.90;;;;;;;10.24;65.57;64014.66;5051403;28;20253;-55
2023/12/23 08:25:41;;;;;;;5.30;1.27;;;;;;;10.17;65.38;64009.53;5051366;28;20213;-56
2023/12/23 08:28:07;;;;;;;3.53;0.87;;;;;;;10.16;65.82;64007.91;5051647;28;20652;-55
2023/12/23 08:30:33;;;;;;;1.17;0.90;;;;;;;10.34;65.61;64027.59;5051457;28;20193;-58
2023/12/23 08:32:58;;;;;;;0.97;0.90;;;;;;;10.31;65.50;64021.78;5051549;28;20209;-55
2023/12/23 08:35:24;;;;;;;1.40;1.23;;;;;;;10.28;65.88;64021.03;5051298;28;20193;-54
2023/12/23 08:37:50;;;;;;;4.87;1.60;;;;;;;10.32;66.63;64020.38;5050069;28;20209;-54
2023/12/23 08:40:16;;;;;;;3.23;1.30;;;;;;;10.19;66.20;64009.19;5051198;28;20200;-54
2023/12/23 08:42:44;;;;;;;3.80;1.00;;;;;;;10.19;66.50;64008.66;5051477;28;20691;-53
2023/12/23 08:45:10;;;;;;;3.80;1.00;;;;;;;10.00;69.25;63991.47;5051177;28;20216;-53
2023/12/23 08:47:35;;;;;;;3.50;1.10;;;;;;;9.96;71.87;63984.56;5050880;28;20208;-53
2023/12/23 08:50:01;;;;;;;1.40;1.30;;;;;;;9.81;76.74;63967.63;5051096;28;20194;-54
2023/12/23 08:52:27;;;;;;;4.20;1.67;;;;;;;9.16;79.36;63899.59;5050704;28;20320;-56
2023/12/23 08:54:53;;;;;;;4.03;1.87;;;;;;;8.88;82.94;63871.53;5051056;28;20193;-54
2023/12/23 08:57:18;;;;;;;6.03;1.70;;;;;;;8.72;87.05;63852.09;5051005;28;20213;-55
2023/12/23 08:59:44;;;;;;;2.93;1.77;;;;;;;8.43;89.89;63818.44;5049933;28;20280;-55
2023/12/23 09:02:09;;;;;;;5.33;1.97;;;;;;;7.94;92.81;63767.41;5050796;28;20202;-56
2023/12/23 09:04:35;;;;;;;4.20;2.10;;;;;;;9.36;100.00;63918.94;5049481;28;20259;-55
2023/12/23 09:07:00;;;;;;;5.37;2.20;;;;;;;8.75;93.97;63857.31;5050795;28;20229;-55
2023/12/23 09:09:26;;;;;;;4.10;2.40;;;;;;;8.36;97.30;63813.28;5050960;28;20223;-59
2023/12/23 09:11:51;;;;;;;6.47;2.60;;;;;;;7.77;100.00;63751.38;5050661;28;20351;-55
2023/12/23 09:14:18;;;;;;;5.17;3.13;;;;;;;7.81;100.00;63755.75;5050778;28;20193;-56
2023/12/23 09:16:43;;;;;;;4.20;2.23;;;;;;;7.72;100.00;63740.34;5050665;28;20224;-55
2023/12/23 09:19:08;;;;;;;8.63;2.80;;;;;;;7.79;100.00;63751.06;5050949;28;20207;-56
2023/12/23 09:21:34;;;;;;;6.03;2.73;;;;;;;7.75;100.00;63749.19;5050663;28;20277;-59
2023/12/23 09:23:59;;;;;;;5.33;2.50;;;;;;;7.83;100.00;63752.34;5050544;28;20191;-56
2023/12/23 09:26:25;;;;;;;3.60;2.60;;;;;;;7.80;100.00;63751.59;5050438;28;20181;-55
2023/12/23 09:28:52;;;;;;;4.00;2.50;;;;;;;7.56;100.00;63725.94;5050622;28;20196;-56
2023/12/23 09:31:17;;;;;;;3.50;2.00;;;;;;;7.56;100.00;63725.94;5050641;28;20185;-55
2023/12/23 09:33:44;;;;;;;4.33;1.97;;;;;;;7.48;100.00;63717.22;5050809;28;20644;-56
2023/12/23 09:36:09;;;;;;;3.87;1.83;;;;;;;7.40;100.00;63708.47;5050404;28;20224;-55
2023/12/23 09:38:35;;;;;;;5.70;2.10;;;;;;;7.25;100.00;63692.66;5050667;28;20237;-55
2023/12/23 09:41:01;;;;;;;1.50;1.40;;;;;;;7.48;100.00;63714.72;5050574;28;20696;-55
2023/12/23 09:43:26;;;;;;;2.67;1.87;;;;;;;7.26;100.00;63695.72;5050547;28;20706;-55
2023/12/23 09:45:52;;;;;;;2.80;1.53;;;;;;;7.04;100.00;63671.72;5050145;28;20236;-54
2023/12/23 09:48:18;;;;;;;3.30;1.47;;;;;;;6.75;100.00;63641.19;5032832;28;20205;-55
2023/12/23 09:50:45;;;;;;;3.20;1.57;;;;;;;6.49;100.00;63612.28;5050272;28;20272;-55
2023/12/23 09:53:13;;;;;;;2.37;1.27;;;;;;;6.30;100.00;63589.63;5050071;28;20307;-56
2023/12/23 09:55:43;;;;;;;1.40;1.30;;;;;;;6.17;100.00;63577.97;5050455;28;20285;-54
2023/12/23 09:58:08;;;;;;;2.93;1.53;;;;;;;6.28;100.00;63586.91;5048951;28;20222;-60
2023/12/23 10:00:34;;;;;;;4.60;1.70;;;;;;;6.07;100.00;63564.03;5050136;28;20190;-55
2023/12/23 10:02:59;;;;;;;1.87;1.30;;;;;;;6.00;100.00;63556.94;5048743;28;20279;-56
2023/12/23 10:05:34;;;;;;;3.83;1.47;;;;;;;5.81;100.00;63536.25;5050699;28;20587;-57
2023/12/23 10:07:59;;;;;;;2.00;1.20;;;;;;;5.66;100.00;63522.94;5050368;28;20236;-56
2023/12/23 10:10:36;;;;;;;3.70;1.27;;;;;;;5.58;100.00;63516.19;5052618;28;20658;-58
2023/12/23 10:13:28;;;;;;;4.27;1.37;;;;;;;5.59;100.00;63515.31;5052960;28;20749;-57
2023/12/23 10:15:57;;;;;;;1.53;1.23;;;;;;;5.65;100.00;63521.31;5036020;28;20251;-57
2023/12/23 10:18:22;;;;;;;2.90;1.00;;;;;;;5.61;100.00;63515.00;5053775;28;20615;-55
2023/12/23 10:20:48;;;;;;;0.80;0.80;;;;;;;5.52;100.00;63505.19;5053896;28;20193;-56
2023/12/23 10:23:14;;;;;;;1.43;1.00;;;;;;;5.40;100.00;63491.59;5054101;28;20293;-59
2023/12/23 10:25:40;;;;;;;2.27;1.13;;;;;;;5.28;100.00;63478.53;5052146;28;20220;-55
2023/12/23 10:28:09;;;;;;;0.87;0.87;;;;;;;5.19;100.00;63469.28;5053326;28;20220;-58
2023/12/23 10:30:38;;;;;;;2.37;1.30;;;;;;;5.22;100.00;63472.00;5053413;28;20274;-59
2023/12/23 10:33:08;;;;;;;2.97;1.03;;;;;;;5.23;100.00;63476.13;5053426;28;20212;-59
2023/12/23 10:35:46;;;;;;;2.13;1.10;;;;;;;5.18;100.00;63467.63;5053634;28;20217;-60
2023/12/23 10:38:22;;;;;;;6.77;1.50;;;;;;;5.31;100.00;63484.28;5052898;28;20219;-57
2023/12/23 10:40:55;;;;;;;1.37;1.27;;;;;;;5.25;100.00;63477.75;5052996;28;20204;-55
2023/12/23 10:43:23;;;;;;;1.47;0.87;;;;;;;5.35;100.00;63486.16;5053285;28;20279;-55
2023/12/23 10:45:49;;;;;;;1.63;1.33;;;;;;;5.28;100.00;63479.06;5052945;28;20205;-56
2023/12/23 10:48:17;;;;;;;1.73;1.10;;;;;;;5.25;100.00;63475.81;5053099;28;20274;-56
2023/12/23 10:50:47;;;;;;;1.60;0.90;;;;;;;5.26;100.00;63478.84;5052959;28;20189;-54
2023/12/23 10:53:20;;;;;;;1.97;0.97;;;;;;;5.22;100.00;63475.03;5052797;28;20209;-55
2023/12/23 10:55:47;;;;;;;1.17;0.90;;;;;;;5.25;100.00;63475.81;5035137;28;20282;-56
2023/12/23 10:58:12;;;;;;;1.13;0.83;;;;;;;5.23;100.00;63476.13;5052731;28;20217;-55
2023/12/23 11:00:39;;;;;;;0.87;0.67;;;;;;;5.22;100.00;63470.03;5052899;28;20614;-56
2023/12/23 11:03:07;;;;;;;0.80;0.77;;;;;;;5.20;100.00;63470.38;5053067;28;20619;-54
2023/12/23 11:05:35;;;;;;;0.93;0.83;;;;;;;5.17;100.00;63469.06;5052613;28;20254;-56
2023/12/23 11:08:05;;;;;;;0.67;0.67;;;;;;;5.10;100.00;63459.47;5052687;28;20683;-56
2023/12/23 11:10:31;;;;;;;0.87;0.60;;;;;;;5.27;100.00;63477.44;5052446;28;20215;-56
2023/12/23 11:13:00;;;;;;;0.77;0.73;;;;;;;5.38;100.00;63489.97;5051103;28;20259;-54
2023/12/23 11:15:25;;;;;;;1.30;0.87;;;;;;;5.35;100.00;63486.16;5052719;28;20214;-60
2023/12/23 11:17:54;;;;;;;1.23;0.87;;;;;;;5.44;100.00;63496.50;5052508;28;20694;-56
2023/12/23 11:20:35;;;;;;;1.30;0.77;;;;;;;5.57;100.00;63513.16;5052394;28;20622;-56
2023/12/23 11:23:26;;;;;;;0.97;0.83;;;;;;;5.54;100.00;63509.88;5051245;28;20212;-55
2023/12/23 11:25:54;;;;;;;1.50;1.07;;;;;;;5.79;100.00;63537.09;5052330;28;20217;-57
2023/12/23 11:28:20;;;;;;;0.70;0.70;;;;;;;5.78;100.00;63530.47;5052632;28;20217;-56
2023/12/23 11:30:50;;;;;;;1.23;0.90;;;;;;;5.90;100.00;63546.06;5052205;28;20201;-55